sensor_id;sensor_type;location;lat;lon;timestamp;temperature;humidity
77700;DHT22;66867;42.658;23.320;2023-03-21T00:00:00;13.5;56
77700;DHT22;66867;42.658;23.320;2023-03-21T00:01:00;13.5;56
77700;DHT22;66867;42.658;23.320;2023-03-21T00:02:00;13.5;56
77700;DHT22;66867;42.658;23.320;2023-03-21T00:03:00;13.5;56
77700;DHT22;66867;42.658;23.320;2023-03-21T00:04:00;13.5;56
77700;DHT22;66867;42.658;23.320;2023-03-21T00:05:00;13.5;56
77700;DHT22;66867;42.658;23.320;2023-03-21T00:06:04;13.5;56
77700;DHT22;66867;42.658;23.320;2023-03-21T00:07:00;13.5;56
77700;DHT22;66867;42.658;23.320;2023-03-21T00:08:00;13.5;56
77700;DHT22;66867;42.658;23.320;2023-03-21T00:09:00;13.5;56
77700;DHT22;66867;42.658;23.320;2023-03-21T00:10:00;13.5;56
77700;DHT22;66867;42.658;23.320;2023-03-21T00:11:01;13.5;56
77700;DHT22;66867;42.658;23.320;2023-03-21T00:12:00;13.4;56
77700;DHT22;66867;42.658;23.320;2023-03-21T00:13:00;13.4;56
77700;DHT22;66867;42.658;23.320;2023-03-21T00:14:00;13.3;56
77700;DHT22;66867;42.658;23.320;2023-03-21T00:15:00;13.3;56
77700;DHT22;66867;42.658;23.320;2023-03-21T00:16:08;13.3;56
77700;DHT22;66867;42.658;23.320;2023-03-21T00:17:00;13.2;56
77700;DHT22;66867;42.658;23.320;2023-03-21T00:18:00;13.2;57
77700;DHT22;66867;42.658;23.320;2023-03-21T00:19:00;13.2;57
77700;DHT22;66867;42.658;23.320;2023-03-21T00:20:01;13.2;57
77700;DHT22;66867;42.658;23.320;2023-03-21T00:21:01;13.2;57
77700;DHT22;66867;42.658;23.320;2023-03-21T00:22:00;13.2;57
77700;DHT22;66867;42.658;23.320;2023-03-21T00:23:00;13.2;57
77700;DHT22;66867;42.658;23.320;2023-03-21T00:24:00;13.2;57
77700;DHT22;66867;42.658;23.320;2023-03-21T00:25:00;13.2;57
77700;DHT22;66867;42.658;23.320;2023-03-21T00:26:00;13.2;57
77700;DHT22;66867;42.658;23.320;2023-03-21T00:27:00;13.2;57
77700;DHT22;66867;42.658;23.320;2023-03-21T00:28:00;13.2;57
77700;DHT22;66867;42.658;23.320;2023-03-21T00:29:00;13.2;57
77700;DHT22;66867;42.658;23.320;2023-03-21T00:30:00;13.2;57
77700;DHT22;66867;42.658;23.320;2023-03-21T00:31:00;13.2;58
77700;DHT22;66867;42.658;23.320;2023-03-21T00:32:00;13.2;58
77700;DHT22;66867;42.658;23.320;2023-03-21T00:33:00;13.2;58
77700;DHT22;66867;42.658;23.320;2023-03-21T00:34:00;13.2;58
77700;DHT22;66867;42.658;23.320;2023-03-21T00:35:00;13.2;58
77700;DHT22;66867;42.658;23.320;2023-03-21T00:36:00;13.2;58
77700;DHT22;66867;42.658;23.320;2023-03-21T00:37:00;13.2;57
77700;DHT22;66867;42.658;23.320;2023-03-21T00:38:00;13.2;57
77700;DHT22;66867;42.658;23.320;2023-03-21T00:39:00;13.2;57
77700;DHT22;66867;42.658;23.320;2023-03-21T00:40:00;13.2;57
77700;DHT22;66867;42.658;23.320;2023-03-21T00:41:04;13.2;57
77700;DHT22;66867;42.658;23.320;2023-03-21T00:42:00;13.3;57
77700;DHT22;66867;42.658;23.320;2023-03-21T00:43:00;13.3;57
77700;DHT22;66867;42.658;23.320;2023-03-21T00:44:00;13.3;57
77700;DHT22;66867;42.658;23.320;2023-03-21T00:45:00;13.3;57
77700;DHT22;66867;42.658;23.320;2023-03-21T00:46:00;13.3;57
77700;DHT22;66867;42.658;23.320;2023-03-21T00:47:00;13.3;58
77700;DHT22;66867;42.658;23.320;2023-03-21T00:48:00;13.3;58
77700;DHT22;66867;42.658;23.320;2023-03-21T00:49:00;13.3;58
77700;DHT22;66867;42.658;23.320;2023-03-21T00:50:00;13.2;58
77700;DHT22;66867;42.658;23.320;2023-03-21T00:51:00;13.2;58
77700;DHT22;66867;42.658;23.320;2023-03-21T00:52:00;13.2;58
77700;DHT22;66867;42.658;23.320;2023-03-21T00:53:00;13.2;58
77700;DHT22;66867;42.658;23.320;2023-03-21T00:54:00;13.2;58
77700;DHT22;66867;42.658;23.320;2023-03-21T00:55:00;13.2;58
77700;DHT22;66867;42.658;23.320;2023-03-21T00:56:00;13.2;58
77700;DHT22;66867;42.658;23.320;2023-03-21T00:57:00;13.2;58
77700;DHT22;66867;42.658;23.320;2023-03-21T00:58:00;13.2;58
77700;DHT22;66867;42.658;23.320;2023-03-21T00:59:00;13.2;58
77700;DHT22;66867;42.658;23.320;2023-03-21T01:00:00;13.2;58
77700;DHT22;66867;42.658;23.320;2023-03-21T01:01:00;13.2;58
77700;DHT22;66867;42.658;23.320;2023-03-21T01:02:00;13.2;58
77700;DHT22;66867;42.658;23.320;2023-03-21T01:03:00;13.2;58
77700;DHT22;66867;42.658;23.320;2023-03-21T01:04:00;13.2;58
77700;DHT22;66867;42.658;23.320;2023-03-21T01:05:00;13.2;58
77700;DHT22;66867;42.658;23.320;2023-03-21T01:06:00;13.1;58
77700;DHT22;66867;42.658;23.320;2023-03-21T01:07:00;13.1;59
77700;DHT22;66867;42.658;23.320;2023-03-21T01:08:00;13.1;59
77700;DHT22;66867;42.658;23.320;2023-03-21T01:09:00;13.1;59
77700;DHT22;66867;42.658;23.320;2023-03-21T01:10:00;13.1;59
77700;DHT22;66867;42.658;23.320;2023-03-21T01:11:03;13.1;59
77700;DHT22;66867;42.658;23.320;2023-03-21T01:12:00;13.0;60
77700;DHT22;66867;42.658;23.320;2023-03-21T01:13:00;13.0;60
77700;DHT22;66867;42.658;23.320;2023-03-21T01:14:00;13.0;60
77700;DHT22;66867;42.658;23.320;2023-03-21T01:15:00;13.0;60
77700;DHT22;66867;42.658;23.320;2023-03-21T01:16:00;13.0;60
77700;DHT22;66867;42.658;23.320;2023-03-21T01:17:00;12.9;60
77700;DHT22;66867;42.658;23.320;2023-03-21T01:18:00;12.9;60
77700;DHT22;66867;42.658;23.320;2023-03-21T01:19:00;12.9;60
77700;DHT22;66867;42.658;23.320;2023-03-21T01:20:00;12.8;60
77700;DHT22;66867;42.658;23.320;2023-03-21T01:21:00;12.8;61
77700;DHT22;66867;42.658;23.320;2023-03-21T01:22:00;12.8;61
77700;DHT22;66867;42.658;23.320;2023-03-21T01:23:00;12.8;61
77700;DHT22;66867;42.658;23.320;2023-03-21T01:24:00;12.8;61
77700;DHT22;66867;42.658;23.320;2023-03-21T01:25:00;12.8;61
77700;DHT22;66867;42.658;23.320;2023-03-21T01:26:00;12.7;60
77700;DHT22;66867;42.658;23.320;2023-03-21T01:27:01;12.7;60
77700;DHT22;66867;42.658;23.320;2023-03-21T01:28:00;12.7;61
77700;DHT22;66867;42.658;23.320;2023-03-21T01:29:00;12.7;60
77700;DHT22;66867;42.658;23.320;2023-03-21T01:30:00;12.7;60
77700;DHT22;66867;42.658;23.320;2023-03-21T01:31:00;12.7;60
77700;DHT22;66867;42.658;23.320;2023-03-21T01:32:00;12.7;61
77700;DHT22;66867;42.658;23.320;2023-03-21T01:33:00;12.7;61
77700;DHT22;66867;42.658;23.320;2023-03-21T01:34:00;12.6;61
77700;DHT22;66867;42.658;23.320;2023-03-21T01:35:00;12.6;62
77700;DHT22;66867;42.658;23.320;2023-03-21T01:36:00;12.6;61
77700;DHT22;66867;42.658;23.320;2023-03-21T01:37:00;12.6;61
77700;DHT22;66867;42.658;23.320;2023-03-21T01:38:00;12.6;61
77700;DHT22;66867;42.658;23.320;2023-03-21T01:39:00;12.5;61
77700;DHT22;66867;42.658;23.320;2023-03-21T01:40:00;12.5;61
77700;DHT22;66867;42.658;23.320;2023-03-21T01:41:00;12.5;61
77700;DHT22;66867;42.658;23.320;2023-03-21T01:42:00;12.6;61
77700;DHT22;66867;42.658;23.320;2023-03-21T01:43:00;12.5;61
77700;DHT22;66867;42.658;23.320;2023-03-21T01:44:00;12.5;61
77700;DHT22;66867;42.658;23.320;2023-03-21T01:45:02;12.5;60
77700;DHT22;66867;42.658;23.320;2023-03-21T01:46:06;12.5;61
77700;DHT22;66867;42.658;23.320;2023-03-21T01:47:00;12.5;61
77700;DHT22;66867;42.658;23.320;2023-03-21T01:48:00;12.5;61
77700;DHT22;66867;42.658;23.320;2023-03-21T01:49:01;12.5;61
77700;DHT22;66867;42.658;23.320;2023-03-21T01:50:00;12.5;61
77700;DHT22;66867;42.658;23.320;2023-03-21T01:51:00;12.5;61
77700;DHT22;66867;42.658;23.320;2023-03-21T01:52:02;12.4;61
77700;DHT22;66867;42.658;23.320;2023-03-21T01:53:00;12.4;61
77700;DHT22;66867;42.658;23.320;2023-03-21T01:54:00;12.4;61
77700;DHT22;66867;42.658;23.320;2023-03-21T01:55:00;12.4;61
77700;DHT22;66867;42.658;23.320;2023-03-21T01:56:02;12.4;61
77700;DHT22;66867;42.658;23.320;2023-03-21T01:57:01;12.4;61
77700;DHT22;66867;42.658;23.320;2023-03-21T01:58:00;12.4;61
77700;DHT22;66867;42.658;23.320;2023-03-21T01:59:01;12.4;61
77700;DHT22;66867;42.658;23.320;2023-03-21T02:00:00;12.4;60
77700;DHT22;66867;42.658;23.320;2023-03-21T02:01:00;12.4;60
77700;DHT22;66867;42.658;23.320;2023-03-21T02:02:01;12.4;60
77700;DHT22;66867;42.658;23.320;2023-03-21T02:03:01;12.5;60
77700;DHT22;66867;42.658;23.320;2023-03-21T02:04:00;12.5;60
77700;DHT22;66867;42.658;23.320;2023-03-21T02:05:00;12.4;60
77700;DHT22;66867;42.658;23.320;2023-03-21T02:06:02;12.4;59
77700;DHT22;66867;42.658;23.320;2023-03-21T02:07:04;12.4;59
77700;DHT22;66867;42.658;23.320;2023-03-21T02:08:00;12.5;59
77700;DHT22;66867;42.658;23.320;2023-03-21T02:09:01;12.5;59
77700;DHT22;66867;42.658;23.320;2023-03-21T02:10:01;12.5;59
77700;DHT22;66867;42.658;23.320;2023-03-21T02:11:00;12.5;59
77700;DHT22;66867;42.658;23.320;2023-03-21T02:12:00;12.5;59
77700;DHT22;66867;42.658;23.320;2023-03-21T02:13:01;12.5;59
77700;DHT22;66867;42.658;23.320;2023-03-21T02:14:00;12.5;59
77700;DHT22;66867;42.658;23.320;2023-03-21T02:15:00;12.5;59
77700;DHT22;66867;42.658;23.320;2023-03-21T02:16:01;12.5;59
77700;DHT22;66867;42.658;23.320;2023-03-21T02:17:04;12.5;59
77700;DHT22;66867;42.658;23.320;2023-03-21T02:19:08;12.5;59
77700;DHT22;66867;42.658;23.320;2023-03-21T02:28:03;12.4;59
77700;DHT22;66867;42.658;23.320;2023-03-21T02:29:01;12.5;59
77700;DHT22;66867;42.658;23.320;2023-03-21T02:34:05;12.5;59
77700;DHT22;66867;42.658;23.320;2023-03-21T02:37:04;12.4;60
77700;DHT22;66867;42.658;23.320;2023-03-21T02:38:02;12.4;61
77700;DHT22;66867;42.658;23.320;2023-03-21T02:40:09;12.3;61
77700;DHT22;66867;42.658;23.320;2023-03-21T02:43:04;12.3;60
77700;DHT22;66867;42.658;23.320;2023-03-21T02:44:09;12.3;60
77700;DHT22;66867;42.658;23.320;2023-03-21T02:45:05;12.2;61
77700;DHT22;66867;42.658;23.320;2023-03-21T02:46:01;12.2;61
77700;DHT22;66867;42.658;23.320;2023-03-21T02:48:02;12.1;61
77700;DHT22;66867;42.658;23.320;2023-03-21T02:49:17;12.1;61
77700;DHT22;66867;42.658;23.320;2023-03-21T02:50:03;12.0;61
77700;DHT22;66867;42.658;23.320;2023-03-21T02:51:00;12.0;61
77700;DHT22;66867;42.658;23.320;2023-03-21T02:52:00;12.0;61
77700;DHT22;66867;42.658;23.320;2023-03-21T02:53:00;12.0;61
77700;DHT22;66867;42.658;23.320;2023-03-21T02:54:01;12.0;62
77700;DHT22;66867;42.658;23.320;2023-03-21T02:55:00;11.9;61
77700;DHT22;66867;42.658;23.320;2023-03-21T02:56:00;11.9;61
77700;DHT22;66867;42.658;23.320;2023-03-21T02:57:00;11.9;61
77700;DHT22;66867;42.658;23.320;2023-03-21T02:58:00;11.9;61
77700;DHT22;66867;42.658;23.320;2023-03-21T02:59:00;11.8;61
77700;DHT22;66867;42.658;23.320;2023-03-21T03:00:00;11.8;61
77700;DHT22;66867;42.658;23.320;2023-03-21T03:01:00;11.8;61
77700;DHT22;66867;42.658;23.320;2023-03-21T03:02:00;11.8;61
77700;DHT22;66867;42.658;23.320;2023-03-21T03:03:00;11.8;61
77700;DHT22;66867;42.658;23.320;2023-03-21T03:04:00;11.8;61
77700;DHT22;66867;42.658;23.320;2023-03-21T03:05:00;11.8;61
77700;DHT22;66867;42.658;23.320;2023-03-21T03:06:00;11.8;62
77700;DHT22;66867;42.658;23.320;2023-03-21T03:09:04;11.7;63
77700;DHT22;66867;42.658;23.320;2023-03-21T03:12:04;11.6;63
77700;DHT22;66867;42.658;23.320;2023-03-21T03:16:05;11.5;63
77700;DHT22;66867;42.658;23.320;2023-03-21T03:19:00;11.5;63
77700;DHT22;66867;42.658;23.320;2023-03-21T03:21:09;11.5;63
77700;DHT22;66867;42.658;23.320;2023-03-21T03:22:05;11.5;63
77700;DHT22;66867;42.658;23.320;2023-03-21T03:24:01;11.5;63
77700;DHT22;66867;42.658;23.320;2023-03-21T03:25:02;11.5;63
77700;DHT22;66867;42.658;23.320;2023-03-21T03:26:03;11.5;63
77700;DHT22;66867;42.658;23.320;2023-03-21T03:27:03;11.5;63
77700;DHT22;66867;42.658;23.320;2023-03-21T03:28:00;11.4;63
77700;DHT22;66867;42.658;23.320;2023-03-21T03:29:02;11.4;63
77700;DHT22;66867;42.658;23.320;2023-03-21T03:30:00;11.4;63
77700;DHT22;66867;42.658;23.320;2023-03-21T03:31:00;11.4;63
77700;DHT22;66867;42.658;23.320;2023-03-21T03:32:01;11.4;63
77700;DHT22;66867;42.658;23.320;2023-03-21T03:33:00;11.4;63
77700;DHT22;66867;42.658;23.320;2023-03-21T03:34:02;11.4;63
77700;DHT22;66867;42.658;23.320;2023-03-21T03:35:00;11.4;63
77700;DHT22;66867;42.658;23.320;2023-03-21T03:36:00;11.4;64
77700;DHT22;66867;42.658;23.320;2023-03-21T03:37:01;11.4;64
77700;DHT22;66867;42.658;23.320;2023-03-21T03:38:00;11.4;64
77700;DHT22;66867;42.658;23.320;2023-03-21T03:39:02;11.4;63
77700;DHT22;66867;42.658;23.320;2023-03-21T03:40:10;11.4;64
77700;DHT22;66867;42.658;23.320;2023-03-21T03:41:01;11.4;64
77700;DHT22;66867;42.658;23.320;2023-03-21T03:42:03;11.3;64
77700;DHT22;66867;42.658;23.320;2023-03-21T03:43:02;11.3;63
77700;DHT22;66867;42.658;23.320;2023-03-21T03:44:00;11.4;63
77700;DHT22;66867;42.658;23.320;2023-03-21T03:45:00;11.4;63
77700;DHT22;66867;42.658;23.320;2023-03-21T03:46:03;11.4;63
77700;DHT22;66867;42.658;23.320;2023-03-21T03:47:02;11.4;63
77700;DHT22;66867;42.658;23.320;2023-03-21T03:49:01;11.3;63
77700;DHT22;66867;42.658;23.320;2023-03-21T03:50:17;11.3;62
77700;DHT22;66867;42.658;23.320;2023-03-21T03:51:05;11.4;62
77700;DHT22;66867;42.658;23.320;2023-03-21T03:52:01;11.4;62
77700;DHT22;66867;42.658;23.320;2023-03-21T03:53:02;11.4;62
77700;DHT22;66867;42.658;23.320;2023-03-21T03:54:03;11.4;62
77700;DHT22;66867;42.658;23.320;2023-03-21T03:55:00;11.4;62
77700;DHT22;66867;42.658;23.320;2023-03-21T03:56:00;11.3;62
77700;DHT22;66867;42.658;23.320;2023-03-21T03:57:00;11.3;62
77700;DHT22;66867;42.658;23.320;2023-03-21T03:58:00;11.3;62
77700;DHT22;66867;42.658;23.320;2023-03-21T03:59:01;11.4;62
77700;DHT22;66867;42.658;23.320;2023-03-21T04:00:00;11.3;62
77700;DHT22;66867;42.658;23.320;2023-03-21T04:01:00;11.3;62
77700;DHT22;66867;42.658;23.320;2023-03-21T04:02:00;11.4;62
77700;DHT22;66867;42.658;23.320;2023-03-21T04:03:00;11.4;62
77700;DHT22;66867;42.658;23.320;2023-03-21T04:04:00;11.4;62
77700;DHT22;66867;42.658;23.320;2023-03-21T04:05:00;11.4;62
77700;DHT22;66867;42.658;23.320;2023-03-21T04:06:00;11.3;63
77700;DHT22;66867;42.658;23.320;2023-03-21T04:07:00;11.2;64
77700;DHT22;66867;42.658;23.320;2023-03-21T04:08:00;11.2;64
77700;DHT22;66867;42.658;23.320;2023-03-21T04:09:00;11.2;64
77700;DHT22;66867;42.658;23.320;2023-03-21T04:10:00;11.1;64
77700;DHT22;66867;42.658;23.320;2023-03-21T04:11:00;11.1;64
77700;DHT22;66867;42.658;23.320;2023-03-21T04:12:00;11.0;64
77700;DHT22;66867;42.658;23.320;2023-03-21T04:13:00;11.0;64
77700;DHT22;66867;42.658;23.320;2023-03-21T04:14:00;11.0;64
77700;DHT22;66867;42.658;23.320;2023-03-21T04:15:00;11.0;64
77700;DHT22;66867;42.658;23.320;2023-03-21T04:16:00;10.9;64
77700;DHT22;66867;42.658;23.320;2023-03-21T04:17:00;10.9;64
77700;DHT22;66867;42.658;23.320;2023-03-21T04:18:00;10.9;64
77700;DHT22;66867;42.658;23.320;2023-03-21T04:19:00;10.8;64
77700;DHT22;66867;42.658;23.320;2023-03-21T04:20:00;10.8;64
77700;DHT22;66867;42.658;23.320;2023-03-21T04:21:00;10.8;64
77700;DHT22;66867;42.658;23.320;2023-03-21T04:22:00;10.7;64
77700;DHT22;66867;42.658;23.320;2023-03-21T04:23:00;10.8;64
77700;DHT22;66867;42.658;23.320;2023-03-21T04:24:00;10.8;64
77700;DHT22;66867;42.658;23.320;2023-03-21T04:25:00;10.7;65
77700;DHT22;66867;42.658;23.320;2023-03-21T04:26:00;10.7;64
77700;DHT22;66867;42.658;23.320;2023-03-21T04:27:00;10.7;64
77700;DHT22;66867;42.658;23.320;2023-03-21T04:28:00;10.7;64
77700;DHT22;66867;42.658;23.320;2023-03-21T04:29:00;10.6;64
77700;DHT22;66867;42.658;23.320;2023-03-21T04:30:00;10.6;65
77700;DHT22;66867;42.658;23.320;2023-03-21T04:31:00;10.6;65
77700;DHT22;66867;42.658;23.320;2023-03-21T04:32:00;10.6;65
77700;DHT22;66867;42.658;23.320;2023-03-21T04:33:00;10.6;65
77700;DHT22;66867;42.658;23.320;2023-03-21T04:34:00;10.5;65
77700;DHT22;66867;42.658;23.320;2023-03-21T04:35:00;10.5;65
77700;DHT22;66867;42.658;23.320;2023-03-21T04:36:00;10.5;65
77700;DHT22;66867;42.658;23.320;2023-03-21T04:37:00;10.5;65
77700;DHT22;66867;42.658;23.320;2023-03-21T04:38:00;10.5;65
77700;DHT22;66867;42.658;23.320;2023-03-21T04:39:00;10.5;65
77700;DHT22;66867;42.658;23.320;2023-03-21T04:40:01;10.5;65
77700;DHT22;66867;42.658;23.320;2023-03-21T04:41:00;10.5;65
77700;DHT22;66867;42.658;23.320;2023-03-21T04:42:00;10.5;65
77700;DHT22;66867;42.658;23.320;2023-03-21T04:43:00;10.4;65
77700;DHT22;66867;42.658;23.320;2023-03-21T04:44:00;10.5;65
77700;DHT22;66867;42.658;23.320;2023-03-21T04:45:00;10.4;65
77700;DHT22;66867;42.658;23.320;2023-03-21T04:46:00;10.4;65
77700;DHT22;66867;42.658;23.320;2023-03-21T04:47:00;10.4;65
77700;DHT22;66867;42.658;23.320;2023-03-21T04:48:00;10.4;65
77700;DHT22;66867;42.658;23.320;2023-03-21T04:49:00;10.4;66
77700;DHT22;66867;42.658;23.320;2023-03-21T04:50:00;10.4;66
77700;DHT22;66867;42.658;23.320;2023-03-21T04:51:00;10.5;66
77700;DHT22;66867;42.658;23.320;2023-03-21T04:52:00;10.5;66
77700;DHT22;66867;42.658;23.320;2023-03-21T04:53:00;10.5;66
77700;DHT22;66867;42.658;23.320;2023-03-21T04:54:00;10.5;66
77700;DHT22;66867;42.658;23.320;2023-03-21T04:55:00;10.5;66
77700;DHT22;66867;42.658;23.320;2023-03-21T04:56:00;10.6;66
77700;DHT22;66867;42.658;23.320;2023-03-21T04:57:00;10.6;66
77700;DHT22;66867;42.658;23.320;2023-03-21T04:58:00;10.6;66
77700;DHT22;66867;42.658;23.320;2023-03-21T04:59:01;10.7;66
77700;DHT22;66867;42.658;23.320;2023-03-21T05:00:00;10.7;66
77700;DHT22;66867;42.658;23.320;2023-03-21T05:01:00;10.7;66
77700;DHT22;66867;42.658;23.320;2023-03-21T05:02:00;10.7;66
77700;DHT22;66867;42.658;23.320;2023-03-21T05:03:00;10.7;66
77700;DHT22;66867;42.658;23.320;2023-03-21T05:04:00;10.7;66
77700;DHT22;66867;42.658;23.320;2023-03-21T05:05:00;10.7;66
77700;DHT22;66867;42.658;23.320;2023-03-21T05:06:00;10.7;66
77700;DHT22;66867;42.658;23.320;2023-03-21T05:07:00;10.7;66
77700;DHT22;66867;42.658;23.320;2023-03-21T05:08:00;10.7;67
77700;DHT22;66867;42.658;23.320;2023-03-21T05:09:01;10.7;66
77700;DHT22;66867;42.658;23.320;2023-03-21T05:10:00;10.8;66
77700;DHT22;66867;42.658;23.320;2023-03-21T05:11:00;10.8;66
77700;DHT22;66867;42.658;23.320;2023-03-21T05:12:00;10.8;66
77700;DHT22;66867;42.658;23.320;2023-03-21T05:13:00;10.8;66
77700;DHT22;66867;42.658;23.320;2023-03-21T05:14:00;10.8;67
77700;DHT22;66867;42.658;23.320;2023-03-21T05:15:00;10.8;67
77700;DHT22;66867;42.658;23.320;2023-03-21T05:16:00;10.7;68
77700;DHT22;66867;42.658;23.320;2023-03-21T05:17:00;10.7;68
77700;DHT22;66867;42.658;23.320;2023-03-21T05:18:00;10.7;68
77700;DHT22;66867;42.658;23.320;2023-03-21T05:19:00;10.7;68
77700;DHT22;66867;42.658;23.320;2023-03-21T05:20:00;10.7;68
77700;DHT22;66867;42.658;23.320;2023-03-21T05:21:00;10.6;68
77700;DHT22;66867;42.658;23.320;2023-03-21T05:22:01;10.7;68
77700;DHT22;66867;42.658;23.320;2023-03-21T05:23:00;10.6;68
77700;DHT22;66867;42.658;23.320;2023-03-21T05:24:00;10.6;68
77700;DHT22;66867;42.658;23.320;2023-03-21T05:25:00;10.6;68
77700;DHT22;66867;42.658;23.320;2023-03-21T05:26:00;10.6;68
77700;DHT22;66867;42.658;23.320;2023-03-21T05:27:00;10.6;68
77700;DHT22;66867;42.658;23.320;2023-03-21T05:28:00;10.6;68
77700;DHT22;66867;42.658;23.320;2023-03-21T05:29:00;10.6;68
77700;DHT22;66867;42.658;23.320;2023-03-21T05:30:01;10.6;68
77700;DHT22;66867;42.658;23.320;2023-03-21T05:31:00;10.6;68
77700;DHT22;66867;42.658;23.320;2023-03-21T05:32:00;10.6;69
77700;DHT22;66867;42.658;23.320;2023-03-21T05:33:00;10.7;69
77700;DHT22;66867;42.658;23.320;2023-03-21T05:34:00;10.7;69
77700;DHT22;66867;42.658;23.320;2023-03-21T05:35:00;10.7;69
77700;DHT22;66867;42.658;23.320;2023-03-21T05:36:00;10.7;68
77700;DHT22;66867;42.658;23.320;2023-03-21T05:37:00;10.7;68
77700;DHT22;66867;42.658;23.320;2023-03-21T05:38:00;10.7;68
77700;DHT22;66867;42.658;23.320;2023-03-21T05:39:00;10.8;68
77700;DHT22;66867;42.658;23.320;2023-03-21T05:40:00;10.8;68
77700;DHT22;66867;42.658;23.320;2023-03-21T05:41:00;10.8;68
77700;DHT22;66867;42.658;23.320;2023-03-21T05:42:00;10.9;68
77700;DHT22;66867;42.658;23.320;2023-03-21T05:43:00;10.9;68
77700;DHT22;66867;42.658;23.320;2023-03-21T05:44:00;10.9;67
77700;DHT22;66867;42.658;23.320;2023-03-21T05:45:00;11.0;67
77700;DHT22;66867;42.658;23.320;2023-03-21T05:46:00;11.0;67
77700;DHT22;66867;42.658;23.320;2023-03-21T05:47:00;11.0;68
77700;DHT22;66867;42.658;23.320;2023-03-21T05:48:00;11.1;68
77700;DHT22;66867;42.658;23.320;2023-03-21T05:49:00;11.1;68
77700;DHT22;66867;42.658;23.320;2023-03-21T05:50:00;11.1;68
77700;DHT22;66867;42.658;23.320;2023-03-21T05:51:00;11.1;67
77700;DHT22;66867;42.658;23.320;2023-03-21T05:52:00;11.2;68
77700;DHT22;66867;42.658;23.320;2023-03-21T05:53:00;11.2;68
77700;DHT22;66867;42.658;23.320;2023-03-21T05:54:00;11.2;68
77700;DHT22;66867;42.658;23.320;2023-03-21T05:55:00;11.2;68
77700;DHT22;66867;42.658;23.320;2023-03-21T05:56:00;11.3;68
77700;DHT22;66867;42.658;23.320;2023-03-21T05:57:00;11.3;69
77700;DHT22;66867;42.658;23.320;2023-03-21T05:58:00;11.3;69
77700;DHT22;66867;42.658;23.320;2023-03-21T05:59:00;11.3;70
77700;DHT22;66867;42.658;23.320;2023-03-21T06:00:00;11.3;70
77700;DHT22;66867;42.658;23.320;2023-03-21T06:01:00;11.3;69
77700;DHT22;66867;42.658;23.320;2023-03-21T06:02:00;11.4;69
77700;DHT22;66867;42.658;23.320;2023-03-21T06:03:00;11.4;68
77700;DHT22;66867;42.658;23.320;2023-03-21T06:04:00;11.4;68
77700;DHT22;66867;42.658;23.320;2023-03-21T06:05:00;11.5;68
77700;DHT22;66867;42.658;23.320;2023-03-21T06:06:00;11.5;68
77700;DHT22;66867;42.658;23.320;2023-03-21T06:07:00;11.5;67
77700;DHT22;66867;42.658;23.320;2023-03-21T06:08:00;11.5;67
77700;DHT22;66867;42.658;23.320;2023-03-21T06:09:00;11.6;67
77700;DHT22;66867;42.658;23.320;2023-03-21T06:10:00;11.6;67
77700;DHT22;66867;42.658;23.320;2023-03-21T06:11:00;11.6;68
77700;DHT22;66867;42.658;23.320;2023-03-21T06:12:00;11.6;68
77700;DHT22;66867;42.658;23.320;2023-03-21T06:13:00;11.7;67
77700;DHT22;66867;42.658;23.320;2023-03-21T06:14:00;11.7;67
77700;DHT22;66867;42.658;23.320;2023-03-21T06:15:00;11.7;67
77700;DHT22;66867;42.658;23.320;2023-03-21T06:16:00;11.7;67
77700;DHT22;66867;42.658;23.320;2023-03-21T06:17:00;11.8;67
77700;DHT22;66867;42.658;23.320;2023-03-21T06:18:00;11.8;67
77700;DHT22;66867;42.658;23.320;2023-03-21T06:19:00;11.8;67
77700;DHT22;66867;42.658;23.320;2023-03-21T06:26:00;12.0;66
77700;DHT22;66867;42.658;23.320;2023-03-21T06:27:00;12.0;66
77700;DHT22;66867;42.658;23.320;2023-03-21T06:29:00;12.1;66
77700;DHT22;66867;42.658;23.320;2023-03-21T06:30:00;12.1;66
77700;DHT22;66867;42.658;23.320;2023-03-21T06:33:00;12.3;66
77700;DHT22;66867;42.658;23.320;2023-03-21T06:34:00;12.3;66
77700;DHT22;66867;42.658;23.320;2023-03-21T06:35:00;12.3;66
77700;DHT22;66867;42.658;23.320;2023-03-21T06:36:00;12.3;66
77700;DHT22;66867;42.658;23.320;2023-03-21T06:37:00;12.3;65
77700;DHT22;66867;42.658;23.320;2023-03-21T06:38:00;12.3;65
77700;DHT22;66867;42.658;23.320;2023-03-21T06:39:00;12.4;65
77700;DHT22;66867;42.658;23.320;2023-03-21T06:40:00;12.4;65
77700;DHT22;66867;42.658;23.320;2023-03-21T06:47:00;12.7;64
77700;DHT22;66867;42.658;23.320;2023-03-21T06:48:00;12.7;63
77700;DHT22;66867;42.658;23.320;2023-03-21T06:49:00;12.8;63
77700;DHT22;66867;42.658;23.320;2023-03-21T06:50:00;12.8;63
77700;DHT22;66867;42.658;23.320;2023-03-21T06:51:00;12.9;63
77700;DHT22;66867;42.658;23.320;2023-03-21T06:52:00;13.0;63
77700;DHT22;66867;42.658;23.320;2023-03-21T06:53:00;13.0;64
77700;DHT22;66867;42.658;23.320;2023-03-21T06:54:00;13.1;64
77700;DHT22;66867;42.658;23.320;2023-03-21T06:55:00;13.1;64
77700;DHT22;66867;42.658;23.320;2023-03-21T06:56:00;13.1;63
77700;DHT22;66867;42.658;23.320;2023-03-21T06:57:00;13.2;62
77700;DHT22;66867;42.658;23.320;2023-03-21T06:58:00;13.2;62
77700;DHT22;66867;42.658;23.320;2023-03-21T06:59:00;13.3;62
77700;DHT22;66867;42.658;23.320;2023-03-21T07:00:00;13.3;62
77700;DHT22;66867;42.658;23.320;2023-03-21T07:01:00;13.4;62
77700;DHT22;66867;42.658;23.320;2023-03-21T07:02:00;13.4;61
77700;DHT22;66867;42.658;23.320;2023-03-21T07:03:00;13.5;62
77700;DHT22;66867;42.658;23.320;2023-03-21T07:04:00;13.5;61
77700;DHT22;66867;42.658;23.320;2023-03-21T07:05:00;13.6;61
77700;DHT22;66867;42.658;23.320;2023-03-21T07:06:05;13.6;61
77700;DHT22;66867;42.658;23.320;2023-03-21T07:07:00;13.7;61
77700;DHT22;66867;42.658;23.320;2023-03-21T07:08:00;13.7;61
77700;DHT22;66867;42.658;23.320;2023-03-21T07:09:00;13.8;61
77700;DHT22;66867;42.658;23.320;2023-03-21T07:10:00;13.9;60
77700;DHT22;66867;42.658;23.320;2023-03-21T07:11:00;13.9;60
77700;DHT22;66867;42.658;23.320;2023-03-21T07:12:00;14.0;59
77700;DHT22;66867;42.658;23.320;2023-03-21T07:13:00;14.0;58
77700;DHT22;66867;42.658;23.320;2023-03-21T07:14:00;14.1;59
77700;DHT22;66867;42.658;23.320;2023-03-21T07:15:00;14.1;59
77700;DHT22;66867;42.658;23.320;2023-03-21T07:16:00;14.1;58
77700;DHT22;66867;42.658;23.320;2023-03-21T07:17:00;14.2;58
77700;DHT22;66867;42.658;23.320;2023-03-21T07:18:00;14.2;58
77700;DHT22;66867;42.658;23.320;2023-03-21T07:19:00;14.2;58
77700;DHT22;66867;42.658;23.320;2023-03-21T07:20:00;14.3;58
77700;DHT22;66867;42.658;23.320;2023-03-21T07:21:00;14.3;58
77700;DHT22;66867;42.658;23.320;2023-03-21T07:22:00;14.4;57
77700;DHT22;66867;42.658;23.320;2023-03-21T07:23:00;14.4;57